createdAt,value
2018-12-21T00:00:07.854Z,1004.64
2018-12-21T00:01:07.844Z,1004.57
2018-12-21T00:02:07.851Z,1004.53
2018-12-21T00:03:07.853Z,1004.54
2018-12-21T00:04:07.856Z,1004.49
2018-12-21T00:05:07.867Z,1004.49
2018-12-21T00:06:07.858Z,1004.45
2018-12-21T00:07:07.902Z,1004.44
2018-12-21T00:08:07.882Z,1004.40
2018-12-21T00:09:07.881Z,1004.39
2018-12-21T00:10:07.876Z,1004.40
2018-12-21T00:11:07.882Z,1004.43
2018-12-21T00:12:07.898Z,1004.40
2018-12-21T00:13:07.884Z,1004.36
2018-12-21T00:14:07.893Z,1004.35
2018-12-21T00:15:07.893Z,1004.37
2018-12-21T00:16:07.895Z,1004.36
2018-12-21T00:17:07.898Z,1004.30
2018-12-21T00:18:07.899Z,1004.30
2018-12-21T00:19:07.905Z,1004.35
2018-12-21T00:20:07.909Z,1004.31
2018-12-21T00:21:07.911Z,1004.22
2018-12-21T00:22:07.911Z,1004.18
2018-12-21T00:23:07.927Z,1004.20
2018-12-21T00:24:07.927Z,1004.17
2018-12-21T00:25:07.925Z,1004.14
2018-12-21T00:26:07.940Z,1004.19
2018-12-21T00:27:07.932Z,1004.14
2018-12-21T00:28:07.935Z,1004.16
2018-12-21T00:29:07.956Z,1004.18
2018-12-21T00:30:07.941Z,1004.14
2018-12-21T00:31:07.946Z,1004.11
2018-12-21T00:32:07.951Z,1004.00
2018-12-21T00:33:07.958Z,1004.06
2018-12-21T00:34:07.962Z,1004.07
2018-12-21T00:35:07.962Z,1004.00
2018-12-21T00:36:07.986Z,1004.07
2018-12-21T00:37:07.988Z,1004.01
2018-12-21T00:38:07.975Z,1004.11
2018-12-21T00:39:07.975Z,1004.10
2018-12-21T00:40:07.974Z,1004.12
2018-12-21T00:41:07.976Z,1004.12
2018-12-21T00:42:07.981Z,1004.13
2018-12-21T00:43:07.981Z,1004.13
2018-12-21T00:44:07.987Z,1004.14
2018-12-21T00:45:07.989Z,1004.10
2018-12-21T00:46:07.994Z,1004.07
2018-12-21T00:47:08.002Z,1004.12
2018-12-21T00:48:07.999Z,1004.11
2018-12-21T00:49:08.026Z,1004.12
2018-12-21T00:50:08.013Z,1004.09
2018-12-21T00:51:08.043Z,1004.05
2018-12-21T00:52:08.013Z,1004.10
2018-12-21T00:53:08.028Z,1003.99
2018-12-21T00:54:08.023Z,1004.00
2018-12-21T00:55:08.030Z,1003.99
2018-12-21T00:56:08.032Z,1003.95
2018-12-21T00:57:08.045Z,1003.91
2018-12-21T00:59:08.044Z,1003.92
2018-12-21T01:00:08.048Z,1003.83
2018-12-21T01:01:08.054Z,1003.84
2018-12-21T01:02:08.050Z,1003.82
2018-12-21T01:03:08.060Z,1003.76
2018-12-21T01:04:08.061Z,1003.85
2018-12-21T01:05:08.062Z,1003.76
2018-12-21T01:06:08.069Z,1003.75
2018-12-21T01:07:08.069Z,1003.79
2018-12-21T01:08:08.076Z,1003.75
2018-12-21T01:09:08.081Z,1003.74
2018-12-21T01:10:08.082Z,1003.75
2018-12-21T01:11:08.085Z,1003.72
2018-12-21T01:12:08.085Z,1003.76
2018-12-21T01:13:08.082Z,1003.79
2018-12-21T01:14:08.097Z,1003.74
2018-12-21T01:15:08.100Z,1003.73
2018-12-21T01:16:08.100Z,1003.71
2018-12-21T01:17:08.108Z,1003.80
2018-12-21T01:18:08.106Z,1003.74
2018-12-21T01:19:08.117Z,1003.78
2018-12-21T01:20:08.117Z,1003.74
2018-12-21T01:21:08.121Z,1003.77
2018-12-21T01:22:08.118Z,1003.81
2018-12-21T01:23:08.123Z,1003.76
2018-12-21T01:24:08.133Z,1003.77
2018-12-21T01:25:08.134Z,1003.70
2018-12-21T01:26:08.145Z,1003.80
2018-12-21T01:27:08.142Z,1003.81
2018-12-21T01:28:08.147Z,1003.79
2018-12-21T01:29:08.150Z,1003.81
2018-12-21T01:30:08.153Z,1003.79
2018-12-21T01:31:08.157Z,1003.69
2018-12-21T01:32:08.166Z,1003.69
2018-12-21T01:33:08.164Z,1003.70
2018-12-21T01:34:08.166Z,1003.73
2018-12-21T01:35:08.174Z,1003.70
2018-12-21T01:36:08.187Z,1003.72
2018-12-21T01:37:08.179Z,1003.66
2018-12-21T01:38:08.185Z,1003.67
2018-12-21T01:39:08.196Z,1003.71
2018-12-21T01:40:08.191Z,1003.69
2018-12-21T01:41:08.198Z,1003.68
2018-12-21T01:42:08.199Z,1003.70
2018-12-21T01:43:08.203Z,1003.66
2018-12-21T01:44:08.207Z,1003.63
2018-12-21T01:45:08.204Z,1003.68
2018-12-21T01:46:08.206Z,1003.60
2018-12-21T01:47:08.221Z,1003.56
2018-12-21T01:48:08.222Z,1003.56
2018-12-21T01:50:08.321Z,1003.53
2018-12-21T01:51:08.230Z,1003.53
2018-12-21T01:52:08.242Z,1003.50
2018-12-21T01:53:08.239Z,1003.49
2018-12-21T01:54:08.242Z,1003.47
2018-12-21T01:55:08.247Z,1003.45
2018-12-21T01:56:08.256Z,1003.43
2018-12-21T01:58:08.257Z,1003.53
2018-12-21T01:59:08.264Z,1003.55
2018-12-21T02:00:08.271Z,1003.39
2018-12-21T02:01:08.278Z,1003.46
2018-12-21T02:02:08.267Z,1003.45
2018-12-21T02:03:08.278Z,1003.38
2018-12-21T02:04:08.280Z,1003.35
2018-12-21T02:05:08.288Z,1003.34
2018-12-21T02:06:08.285Z,1003.32
2018-12-21T02:07:08.295Z,1003.26
2018-12-21T02:08:08.295Z,1003.24
2018-12-21T02:09:08.303Z,1003.26
2018-12-21T02:10:08.301Z,1003.29
2018-12-21T02:11:08.309Z,1003.27
2018-12-21T02:12:08.313Z,1003.21
2018-12-21T02:13:08.319Z,1003.22
2018-12-21T02:14:08.314Z,1003.21
2018-12-21T02:15:08.325Z,1003.20
2018-12-21T02:16:08.324Z,1003.11
2018-12-21T02:17:08.330Z,1003.10
2018-12-21T02:18:08.339Z,1003.07
2018-12-21T02:19:08.336Z,1003.03
2018-12-21T02:20:08.343Z,1003.03
2018-12-21T02:21:08.343Z,1002.96
2018-12-21T02:22:08.356Z,1003.05
2018-12-21T02:23:08.351Z,1003.04
2018-12-21T02:24:08.359Z,1003.08
2018-12-21T02:25:08.362Z,1003.08
2018-12-21T02:26:08.377Z,1002.99
2018-12-21T02:27:08.378Z,1003.03
2018-12-21T02:28:08.382Z,1002.94
2018-12-21T02:29:08.491Z,1002.98
2018-12-21T02:30:08.379Z,1002.96
2018-12-21T02:31:08.399Z,1002.95
2018-12-21T02:32:08.382Z,1002.93
2018-12-21T02:33:08.389Z,1002.93
2018-12-21T02:34:08.395Z,1002.90
2018-12-21T02:35:08.399Z,1002.88
2018-12-21T02:36:08.405Z,1002.85
2018-12-21T02:37:08.411Z,1002.87
2018-12-21T02:38:08.418Z,1002.85
2018-12-21T02:39:08.412Z,1002.85
2018-12-21T02:40:08.414Z,1002.90
2018-12-21T02:41:08.427Z,1002.78
2018-12-21T02:42:08.418Z,1002.71
2018-12-21T02:43:08.438Z,1002.84
2018-12-21T02:44:08.434Z,1002.82
2018-12-21T02:45:08.440Z,1002.84
2018-12-21T02:46:08.441Z,1002.83
2018-12-21T02:47:08.440Z,1002.85
2018-12-21T02:48:08.444Z,1002.84
2018-12-21T02:49:08.453Z,1002.81
2018-12-21T02:50:08.456Z,1002.85
2018-12-21T02:51:08.458Z,1002.83
2018-12-21T02:52:08.462Z,1002.81
2018-12-21T02:53:08.472Z,1002.83
2018-12-21T02:54:08.471Z,1002.85
2018-12-21T02:55:08.478Z,1002.84
2018-12-21T02:56:08.475Z,1002.84
2018-12-21T02:57:08.484Z,1002.83
2018-12-21T02:58:08.489Z,1002.74
2018-12-21T02:59:08.490Z,1002.83
2018-12-21T03:00:08.502Z,1002.77
2018-12-21T03:01:08.512Z,1002.84
2018-12-21T03:02:08.491Z,1002.76
2018-12-21T03:03:08.502Z,1002.71
2018-12-21T03:04:08.510Z,1002.71
2018-12-21T03:05:08.515Z,1002.70
2018-12-21T03:06:08.516Z,1002.72
2018-12-21T03:08:08.526Z,1002.66
2018-12-21T03:09:08.532Z,1002.70
2018-12-21T03:10:08.534Z,1002.63
2018-12-21T03:11:08.549Z,1002.66
2018-12-21T03:12:08.540Z,1002.66
2018-12-21T03:13:08.545Z,1002.59
2018-12-21T03:14:08.551Z,1002.62
2018-12-21T03:15:08.557Z,1002.60
2018-12-21T03:16:08.559Z,1002.62
2018-12-21T03:17:08.562Z,1002.60
2018-12-21T03:18:08.564Z,1002.52
2018-12-21T03:19:08.570Z,1002.39
2018-12-21T03:20:08.580Z,1002.41
2018-12-21T03:21:08.571Z,1002.40
2018-12-21T03:22:14.686Z,1002.37
2018-12-21T03:23:08.579Z,1002.35
2018-12-21T03:24:08.649Z,1002.30
2018-12-21T03:25:08.594Z,1002.29
2018-12-21T03:26:08.604Z,1002.23
2018-12-21T03:27:08.597Z,1002.25
2018-12-21T03:28:08.604Z,1002.10
2018-12-21T03:29:08.608Z,1002.13
2018-12-21T03:30:08.617Z,1002.12
2018-12-21T03:31:08.624Z,1002.07
2018-12-21T03:32:08.642Z,1002.01
2018-12-21T03:33:08.640Z,1002.01
2018-12-21T03:34:08.631Z,1001.96
2018-12-21T03:35:08.647Z,1001.94
2018-12-21T03:36:08.649Z,1001.96
2018-12-21T03:37:08.645Z,1001.92
2018-12-21T03:38:08.646Z,1001.92
2018-12-21T03:39:08.652Z,1001.94
2018-12-21T03:40:08.687Z,1001.90
2018-12-21T03:41:08.663Z,1001.87
2018-12-21T03:42:08.660Z,1001.81
2018-12-21T03:43:08.682Z,1001.77
2018-12-21T03:44:08.675Z,1001.69
2018-12-21T03:45:08.674Z,1001.67
2018-12-21T03:46:08.676Z,1001.57
2018-12-21T03:47:08.679Z,1001.49
2018-12-21T03:48:08.683Z,1001.46
2018-12-21T03:49:08.686Z,1001.43
2018-12-21T03:50:08.694Z,1001.32
2018-12-21T03:51:08.695Z,1001.34
2018-12-21T03:52:08.701Z,1001.32
2018-12-21T03:53:08.697Z,1001.29
2018-12-21T03:54:08.708Z,1001.28
2018-12-21T03:55:08.759Z,1001.36
2018-12-21T03:56:08.836Z,1001.34
2018-12-21T03:57:08.713Z,1001.32
2018-12-21T03:58:08.728Z,1001.27
2018-12-21T03:59:08.725Z,1001.25
2018-12-21T04:00:08.730Z,1001.23
2018-12-21T04:01:08.775Z,1001.20
2018-12-21T04:02:08.738Z,1001.24
2018-12-21T04:03:08.743Z,1001.23
2018-12-21T04:04:08.756Z,1001.18
2018-12-21T04:05:08.746Z,1001.20
2018-12-21T04:06:08.754Z,1001.18
2018-12-21T04:07:08.764Z,1001.18
2018-12-21T04:08:08.762Z,1001.12
2018-12-21T04:09:08.782Z,1001.05
2018-12-21T04:10:08.765Z,1001.15
2018-12-21T04:11:08.774Z,1001.14
2018-12-21T04:12:08.792Z,1001.14
2018-12-21T04:13:08.791Z,1001.12
2018-12-21T04:14:08.798Z,1001.03
2018-12-21T04:15:08.792Z,1001.03
2018-12-21T04:16:08.798Z,1001.03
2018-12-21T04:17:08.796Z,1000.96
2018-12-21T04:18:08.808Z,1001.05
2018-12-21T04:19:08.810Z,1000.91
2018-12-21T04:20:08.809Z,1000.89
2018-12-21T04:21:08.843Z,1000.86
2018-12-21T04:22:08.833Z,1000.86
2018-12-21T04:23:08.820Z,1000.88
2018-12-21T04:24:08.825Z,1000.83
2018-12-21T04:25:08.823Z,1000.81
2018-12-21T04:26:08.832Z,1000.76
2018-12-21T04:27:08.836Z,1000.75
2018-12-21T04:28:08.836Z,1000.71
2018-12-21T04:29:08.846Z,1000.72
2018-12-21T04:30:08.847Z,1000.67
2018-12-21T04:31:08.857Z,1000.67
2018-12-21T04:32:08.854Z,1000.70
2018-12-21T04:33:08.857Z,1000.72
2018-12-21T04:34:08.866Z,1000.69
2018-12-21T04:35:08.870Z,1000.66
2018-12-21T04:36:08.870Z,1000.65
2018-12-21T04:37:08.881Z,1000.64
2018-12-21T04:38:08.877Z,1000.58
2018-12-21T04:39:08.891Z,1000.64
2018-12-21T04:40:08.887Z,1000.59
2018-12-21T04:41:08.895Z,1000.52
2018-12-21T04:42:08.899Z,1000.56
2018-12-21T04:43:08.908Z,1000.54
2018-12-21T04:44:08.895Z,1000.45
2018-12-21T04:45:08.907Z,1000.43
2018-12-21T04:46:08.922Z,1000.37
2018-12-21T04:47:08.915Z,1000.35
2018-12-21T04:48:08.921Z,1000.38
2018-12-21T04:49:08.934Z,1000.32
2018-12-21T04:50:08.934Z,1000.35
2018-12-21T04:51:08.926Z,1000.39
2018-12-21T04:52:08.934Z,1000.35
2018-12-21T04:53:08.945Z,1000.29
2018-12-21T04:54:08.940Z,1000.21
2018-12-21T04:55:08.949Z,1000.20
2018-12-21T04:56:08.959Z,1000.09
2018-12-21T04:57:08.954Z,1000.22
2018-12-21T04:58:08.961Z,1000.09
2018-12-21T04:59:09.776Z,1000.14
2018-12-21T05:00:08.967Z,1000.17
2018-12-21T05:01:08.970Z,1000.13
2018-12-21T05:02:08.984Z,1000.16
2018-12-21T05:03:08.979Z,1000.09
2018-12-21T05:04:08.979Z,1000.04
2018-12-21T05:05:08.989Z,999.96
2018-12-21T05:06:08.983Z,1000.02
2018-12-21T05:07:12.499Z,999.85
2018-12-21T05:08:09.000Z,999.91
2018-12-21T05:09:09.002Z,999.85
2018-12-21T05:10:09.006Z,999.88
2018-12-21T05:11:09.009Z,999.82
2018-12-21T05:12:09.026Z,999.83
2018-12-21T05:13:09.019Z,999.84
2018-12-21T05:14:09.033Z,999.85
2018-12-21T05:15:09.033Z,999.85
2018-12-21T05:16:09.033Z,999.81
2018-12-21T05:17:09.037Z,999.82
2018-12-21T05:18:09.041Z,999.72
2018-12-21T05:19:09.043Z,999.68
2018-12-21T05:20:09.050Z,999.67
2018-12-21T05:21:09.058Z,999.70
2018-12-21T05:22:09.050Z,999.65
2018-12-21T05:23:09.061Z,999.63
2018-12-21T05:24:09.066Z,999.57
2018-12-21T05:25:09.071Z,999.56
2018-12-21T05:26:09.074Z,999.48
2018-12-21T05:27:09.074Z,999.47
2018-12-21T05:28:09.082Z,999.35
2018-12-21T05:29:09.085Z,999.37
2018-12-21T05:30:09.089Z,999.36
2018-12-21T05:31:09.098Z,999.42
2018-12-21T05:32:09.105Z,999.31
2018-12-21T05:33:09.100Z,999.35
2018-12-21T05:34:09.111Z,999.37
2018-12-21T05:35:09.115Z,999.30
2018-12-21T05:36:09.131Z,999.32
2018-12-21T05:37:09.114Z,999.25
2018-12-21T05:38:09.130Z,999.25
2018-12-21T05:39:09.124Z,999.21
2018-12-21T05:40:09.133Z,999.22
2018-12-21T05:41:09.137Z,999.18
2018-12-21T05:42:09.140Z,999.18
2018-12-21T05:43:09.143Z,999.15
2018-12-21T05:44:09.149Z,999.15
2018-12-21T05:45:09.158Z,999.01
2018-12-21T05:46:09.175Z,998.99
2018-12-21T05:47:09.160Z,999.10
2018-12-21T05:48:09.178Z,999.07
2018-12-21T05:49:09.173Z,999.04
2018-12-21T05:50:09.181Z,999.03
2018-12-21T05:51:09.187Z,998.87
2018-12-21T05:52:09.177Z,998.94
2018-12-21T05:53:09.196Z,998.85
2018-12-21T05:54:09.191Z,998.82
2018-12-21T05:55:09.189Z,998.78
2018-12-21T05:56:09.209Z,998.79
2018-12-21T05:57:09.202Z,998.75
2018-12-21T05:58:09.231Z,998.80
2018-12-21T05:59:09.223Z,998.80
2018-12-21T06:00:09.213Z,998.76
2018-12-21T06:01:09.213Z,998.72
2018-12-21T06:02:09.221Z,998.73
2018-12-21T06:03:09.236Z,998.78
2018-12-21T06:04:09.229Z,998.63
2018-12-21T06:05:09.240Z,998.74
2018-12-21T06:06:09.252Z,998.74
2018-12-21T06:07:09.253Z,998.73
2018-12-21T06:08:09.333Z,998.67
2018-12-21T06:09:09.246Z,998.68
2018-12-21T06:10:09.242Z,998.48
2018-12-21T06:11:09.255Z,998.59
2018-12-21T06:12:09.250Z,998.62
2018-12-21T06:13:09.261Z,998.61
2018-12-21T06:14:09.261Z,998.57
2018-12-21T06:15:09.265Z,998.54
2018-12-21T06:16:09.277Z,998.45
2018-12-21T06:17:09.275Z,998.44
2018-12-21T06:18:09.281Z,998.44
2018-12-21T06:19:09.289Z,998.37
2018-12-21T06:20:09.293Z,998.37
2018-12-21T06:21:09.302Z,998.28
2018-12-21T06:22:09.304Z,998.13
2018-12-21T06:23:09.835Z,998.16
2018-12-21T06:24:09.306Z,998.07
2018-12-21T06:25:09.311Z,998.06
2018-12-21T06:26:09.335Z,997.99
2018-12-21T06:27:09.322Z,997.92
2018-12-21T06:28:09.324Z,997.93
2018-12-21T06:29:09.332Z,997.90
2018-12-21T06:30:09.335Z,997.87
2018-12-21T06:31:09.335Z,997.92
2018-12-21T06:32:09.347Z,997.84
2018-12-21T06:33:09.347Z,997.92
2018-12-21T06:34:09.353Z,997.79
2018-12-21T06:35:09.361Z,997.83
2018-12-21T06:36:09.372Z,997.86
2018-12-21T06:37:09.361Z,997.86
2018-12-21T06:38:09.368Z,997.76
2018-12-21T06:39:09.374Z,997.70
2018-12-21T06:40:09.377Z,997.70
2018-12-21T06:41:09.458Z,997.68
2018-12-21T06:42:09.382Z,997.68
2018-12-21T06:43:09.414Z,997.71
2018-12-21T06:44:09.470Z,997.71
2018-12-21T06:45:09.567Z,997.76
2018-12-21T06:46:14.194Z,997.71
2018-12-21T06:47:09.405Z,997.81
2018-12-21T06:48:09.557Z,997.71
2018-12-21T06:49:09.530Z,997.64
2018-12-21T06:50:09.625Z,997.74
2018-12-21T06:51:09.565Z,997.68
2018-12-21T06:52:09.429Z,997.63
2018-12-21T06:53:17.760Z,997.61
2018-12-21T06:54:09.440Z,997.56
2018-12-21T06:55:09.456Z,997.56
2018-12-21T06:56:09.448Z,997.46
2018-12-21T06:57:09.456Z,997.46
2018-12-21T06:58:09.463Z,997.47
2018-12-21T06:59:09.458Z,997.44
2018-12-21T07:00:09.463Z,997.36
2018-12-21T07:01:09.475Z,997.42
2018-12-21T07:02:09.470Z,997.42
2018-12-21T07:03:16.913Z,997.41
2018-12-21T07:04:09.494Z,997.36
2018-12-21T07:05:09.485Z,997.39
2018-12-21T07:06:09.488Z,997.40
2018-12-21T07:07:09.500Z,997.28
2018-12-21T07:08:09.497Z,997.33
2018-12-21T07:09:09.501Z,997.29
2018-12-21T07:10:09.506Z,997.32
2018-12-21T07:11:09.514Z,997.23
2018-12-21T07:12:09.513Z,997.13
2018-12-21T07:13:09.555Z,997.18
2018-12-21T07:14:09.520Z,997.06
2018-12-21T07:15:09.528Z,997.03
2018-12-21T07:16:09.526Z,996.98
2018-12-21T07:17:09.533Z,997.01
2018-12-21T07:18:09.530Z,996.87
2018-12-21T07:19:09.540Z,996.95
2018-12-21T07:20:09.783Z,996.88
2018-12-21T07:21:09.546Z,996.90
2018-12-21T07:22:09.565Z,996.85
2018-12-21T07:23:09.552Z,996.78
2018-12-21T07:24:09.559Z,996.81
2018-12-21T07:25:09.563Z,996.82
2018-12-21T07:26:09.561Z,996.82
2018-12-21T07:27:09.568Z,996.84
2018-12-21T07:28:09.580Z,996.72
2018-12-21T07:29:09.584Z,996.74
2018-12-21T07:30:09.588Z,996.66
2018-12-21T07:31:09.589Z,996.61
2018-12-21T07:32:09.589Z,996.54
2018-12-21T07:33:09.596Z,996.47
2018-12-21T07:34:09.603Z,996.47
2018-12-21T07:35:09.604Z,996.42
2018-12-21T07:36:09.603Z,996.42
2018-12-21T07:37:09.607Z,996.31
2018-12-21T07:38:09.610Z,996.27
2018-12-21T07:39:09.618Z,996.23
2018-12-21T07:40:09.623Z,996.20
2018-12-21T07:41:09.624Z,996.19
2018-12-21T07:42:09.628Z,996.14
2018-12-21T07:43:09.662Z,996.10
2018-12-21T07:44:09.648Z,996.03
2018-12-21T07:45:09.634Z,996.05
2018-12-21T07:46:09.644Z,996.00
2018-12-21T07:47:09.652Z,996.02
2018-12-21T07:48:09.663Z,996.01
2018-12-21T07:49:09.647Z,995.96
2018-12-21T07:50:09.665Z,995.95
2018-12-21T07:51:09.661Z,995.89
2018-12-21T07:52:09.673Z,995.91
2018-12-21T07:53:09.669Z,995.88
2018-12-21T07:54:09.731Z,995.91
2018-12-21T07:55:09.680Z,995.93
2018-12-21T07:56:09.678Z,995.94
2018-12-21T07:57:09.672Z,995.86
2018-12-21T07:58:09.687Z,995.81
2018-12-21T07:59:09.697Z,995.76
2018-12-21T08:00:09.695Z,995.76
2018-12-21T08:01:09.701Z,995.76
2018-12-21T08:02:09.704Z,995.68
2018-12-21T08:03:09.718Z,995.63
2018-12-21T08:04:09.752Z,995.58
2018-12-21T08:05:09.778Z,995.55
2018-12-21T08:06:09.728Z,995.52
2018-12-21T08:07:09.724Z,995.46
2018-12-21T08:08:09.732Z,995.40
2018-12-21T08:09:09.763Z,995.35
2018-12-21T08:10:09.733Z,995.36
2018-12-21T08:11:09.742Z,995.31
2018-12-21T08:12:09.743Z,995.32
2018-12-21T08:13:09.750Z,995.29
2018-12-21T08:14:09.757Z,995.33
2018-12-21T08:15:09.760Z,995.28
2018-12-21T08:16:09.784Z,995.30
2018-12-21T08:17:09.773Z,995.24
2018-12-21T08:18:09.763Z,995.28
2018-12-21T08:19:09.775Z,995.20
2018-12-21T08:20:09.783Z,995.18
2018-12-21T08:21:09.794Z,995.19
2018-12-21T08:22:09.790Z,995.14
2018-12-21T08:23:09.798Z,995.12
2018-12-21T08:24:09.799Z,995.07
2018-12-21T08:25:09.800Z,995.06
2018-12-21T08:26:09.806Z,995.03
2018-12-21T08:27:09.807Z,995.00
2018-12-21T08:28:09.807Z,995.02
2018-12-21T08:29:09.813Z,994.99
2018-12-21T08:30:09.817Z,994.92
2018-12-21T08:31:11.225Z,994.84
2018-12-21T08:32:09.823Z,994.85
2018-12-21T08:33:09.839Z,994.84
2018-12-21T08:34:09.838Z,994.87
2018-12-21T08:35:09.834Z,994.87
2018-12-21T08:36:09.839Z,994.80
2018-12-21T08:37:09.844Z,994.80
2018-12-21T08:38:09.862Z,994.71
2018-12-21T08:39:09.858Z,994.72
2018-12-21T08:40:09.865Z,994.70
2018-12-21T08:41:09.880Z,994.68
2018-12-21T08:42:09.880Z,994.64
2018-12-21T08:43:09.878Z,994.71
2018-12-21T08:44:09.882Z,994.68
2018-12-21T08:45:09.892Z,994.63
2018-12-21T08:46:09.913Z,994.68
2018-12-21T08:47:09.899Z,994.70
2018-12-21T08:48:09.908Z,994.71
2018-12-21T08:49:09.898Z,994.71
2018-12-21T08:50:09.911Z,994.65
2018-12-21T08:51:09.914Z,994.53
2018-12-21T08:52:09.976Z,994.61
2018-12-21T08:53:09.925Z,994.54
2018-12-21T08:54:09.924Z,994.50
2018-12-21T08:55:11.875Z,994.61
2018-12-21T08:56:09.940Z,994.50
2018-12-21T08:57:09.933Z,994.55
2018-12-21T08:58:09.941Z,994.50
2018-12-21T08:59:09.943Z,994.45
2018-12-21T09:00:09.953Z,994.37
2018-12-21T09:01:09.951Z,994.39
2018-12-21T09:02:09.958Z,994.38
2018-12-21T09:03:09.969Z,994.34
2018-12-21T09:04:09.973Z,994.35
2018-12-21T09:05:09.970Z,994.32
2018-12-21T09:06:18.290Z,994.29
2018-12-21T09:07:09.974Z,994.25
2018-12-21T09:08:09.981Z,994.19
2018-12-21T09:09:09.985Z,994.16
2018-12-21T09:10:10.004Z,994.14
2018-12-21T09:11:10.022Z,994.12
2018-12-21T09:12:10.015Z,994.12
2018-12-21T09:13:10.008Z,994.03
2018-12-21T09:14:10.110Z,994.04
2018-12-21T09:15:10.015Z,994.05
2018-12-21T09:16:10.017Z,994.07
2018-12-21T09:17:10.018Z,993.96
2018-12-21T09:18:10.022Z,994.02
2018-12-21T09:19:10.036Z,993.99
2018-12-21T09:20:10.046Z,993.95
2018-12-21T09:21:10.036Z,993.91
2018-12-21T09:22:10.043Z,993.84
2018-12-21T09:23:10.049Z,993.83
2018-12-21T09:24:10.057Z,993.76
2018-12-21T09:25:10.045Z,993.75
2018-12-21T09:26:10.056Z,993.70
2018-12-21T09:27:10.064Z,993.57
2018-12-21T09:28:10.063Z,993.66
2018-12-21T09:29:10.077Z,993.65
2018-12-21T09:30:10.082Z,993.66
2018-12-21T09:31:10.087Z,993.63
2018-12-21T09:32:10.085Z,993.64
2018-12-21T09:33:10.096Z,993.59
2018-12-21T09:34:10.110Z,993.60
2018-12-21T09:35:10.100Z,993.54
2018-12-21T09:36:10.104Z,993.55
2018-12-21T09:37:10.106Z,993.51
2018-12-21T09:38:10.109Z,993.52
2018-12-21T09:39:10.116Z,993.36
2018-12-21T09:40:10.125Z,993.48
2018-12-21T09:41:10.118Z,993.34
2018-12-21T09:42:10.126Z,993.28
2018-12-21T09:43:10.145Z,993.43
2018-12-21T09:44:10.153Z,993.39
2018-12-21T09:45:10.148Z,993.42
2018-12-21T09:46:10.150Z,993.42
2018-12-21T09:47:10.146Z,993.33
2018-12-21T09:48:10.156Z,993.33
2018-12-21T09:49:10.161Z,993.24
2018-12-21T09:50:10.169Z,993.18
2018-12-21T09:51:10.163Z,993.24
2018-12-21T09:52:10.174Z,993.15
2018-12-21T09:53:10.217Z,993.08
2018-12-21T09:54:10.390Z,993.10
2018-12-21T09:55:10.229Z,993.08
2018-12-21T09:56:10.181Z,993.00
2018-12-21T09:57:10.198Z,992.94
2018-12-21T09:58:10.194Z,992.94
2018-12-21T09:59:10.205Z,992.83
2018-12-21T10:00:10.202Z,992.85
2018-12-21T10:01:10.208Z,992.71
2018-12-21T10:02:10.210Z,992.80
2018-12-21T10:03:10.223Z,992.75
2018-12-21T10:04:10.246Z,992.70
2018-12-21T10:05:10.224Z,992.72
2018-12-21T10:06:10.240Z,992.70
2018-12-21T10:07:10.243Z,992.69
2018-12-21T10:08:10.242Z,992.66
2018-12-21T10:09:10.242Z,992.66
2018-12-21T10:10:10.245Z,992.63
2018-12-21T10:11:10.246Z,992.60
2018-12-21T10:12:10.260Z,992.56
2018-12-21T10:13:10.262Z,992.55
2018-12-21T10:14:10.255Z,992.53
2018-12-21T10:15:10.271Z,992.44
2018-12-21T10:16:10.276Z,992.45
2018-12-21T10:17:10.269Z,992.41
2018-12-21T10:18:10.288Z,992.41
2018-12-21T10:19:10.285Z,992.35
2018-12-21T10:20:10.295Z,992.25
2018-12-21T10:21:10.300Z,992.27
2018-12-21T10:22:10.299Z,992.33
2018-12-21T10:23:10.301Z,992.33
2018-12-21T10:24:18.309Z,992.32
2018-12-21T10:25:10.313Z,992.29
2018-12-21T10:26:10.317Z,992.27
2018-12-21T10:27:10.322Z,992.25
2018-12-21T10:28:10.327Z,992.23
2018-12-21T10:29:10.334Z,992.25
2018-12-21T10:30:10.338Z,992.10
2018-12-21T10:31:10.338Z,992.18
2018-12-21T10:32:10.345Z,992.00
2018-12-21T10:33:10.350Z,992.10
2018-12-21T10:34:10.351Z,992.07
2018-12-21T10:35:10.357Z,992.13
2018-12-21T10:36:10.361Z,992.07
2018-12-21T10:37:10.386Z,991.98
2018-12-21T10:38:10.377Z,992.01
2018-12-21T10:39:10.377Z,992.03
2018-12-21T10:40:10.413Z,992.02
2018-12-21T10:41:10.392Z,991.93
2018-12-21T10:42:10.393Z,991.95
2018-12-21T10:43:10.397Z,991.92
2018-12-21T10:44:10.398Z,991.95
2018-12-21T10:46:10.428Z,991.77
2018-12-21T10:47:10.417Z,991.81
2018-12-21T10:48:10.420Z,991.69
2018-12-21T10:49:10.509Z,991.70
2018-12-21T10:51:10.426Z,991.73
2018-12-21T10:52:10.479Z,991.83
2018-12-21T10:53:10.455Z,991.81
2018-12-21T10:54:10.436Z,991.81
2018-12-21T10:55:10.442Z,991.60
2018-12-21T10:56:10.456Z,991.71
2018-12-21T10:57:10.448Z,991.68
2018-12-21T10:58:10.462Z,991.67
2018-12-21T10:59:10.473Z,991.68
2018-12-21T11:00:10.467Z,991.77
2018-12-21T11:01:10.481Z,991.51
2018-12-21T11:02:10.480Z,991.39
2018-12-21T11:04:10.481Z,991.60
2018-12-21T11:05:10.501Z,991.60
2018-12-21T11:06:10.495Z,991.65
2018-12-21T11:07:10.501Z,991.59
2018-12-21T11:08:10.535Z,991.63
2018-12-21T11:09:10.518Z,991.64
2018-12-21T11:10:10.542Z,991.53
2018-12-21T11:11:10.533Z,991.56
2018-12-21T11:12:10.543Z,991.59
2018-12-21T11:13:10.532Z,991.58
2018-12-21T11:14:10.558Z,991.55
2018-12-21T11:15:10.540Z,991.46
2018-12-21T11:16:10.545Z,991.48
2018-12-21T11:17:10.566Z,991.55
2018-12-21T11:18:10.555Z,991.50
2018-12-21T11:19:10.557Z,991.51
2018-12-21T11:20:10.627Z,991.44
2018-12-21T11:21:10.569Z,991.44
2018-12-21T11:22:10.579Z,991.43
2018-12-21T11:23:10.576Z,991.46
2018-12-21T11:24:10.621Z,991.43
2018-12-21T11:25:10.583Z,991.39
2018-12-21T11:26:10.599Z,991.45
2018-12-21T11:27:10.607Z,991.36
2018-12-21T11:28:10.603Z,991.32
2018-12-21T11:29:10.629Z,991.32
2018-12-21T11:30:10.621Z,991.35
2018-12-21T11:31:10.633Z,991.29
2018-12-21T11:32:10.673Z,991.28
2018-12-21T11:33:10.639Z,991.23
2018-12-21T11:34:10.632Z,991.33
2018-12-21T11:35:10.646Z,991.25
2018-12-21T11:36:10.650Z,991.26
2018-12-21T11:38:10.648Z,991.26
2018-12-21T11:39:10.662Z,991.22
2018-12-21T11:40:10.669Z,991.26
2018-12-21T11:41:10.695Z,991.27
2018-12-21T11:42:10.673Z,991.13
2018-12-21T11:43:10.677Z,991.11
2018-12-21T11:44:10.674Z,991.18
2018-12-21T11:45:10.679Z,991.22
2018-12-21T11:46:10.681Z,991.22
2018-12-21T11:47:10.685Z,991.19
2018-12-21T11:48:10.700Z,991.16
2018-12-21T11:49:10.701Z,991.09
2018-12-21T11:50:10.715Z,991.11
2018-12-21T11:51:10.720Z,991.15
2018-12-21T11:52:10.721Z,991.17
2018-12-21T11:53:10.725Z,991.18
2018-12-21T11:54:10.737Z,991.07
2018-12-21T11:55:10.742Z,991.06
2018-12-21T11:56:10.740Z,991.09
2018-12-21T11:57:10.766Z,991.01
2018-12-21T11:58:10.755Z,991.08
2018-12-21T11:59:10.762Z,990.88
2018-12-21T12:00:10.762Z,991.01
2018-12-21T12:01:10.780Z,991.02
2018-12-21T12:02:19.309Z,990.96
2018-12-21T12:03:10.794Z,990.97
2018-12-21T12:04:10.797Z,991.00
2018-12-21T12:06:10.798Z,990.96
2018-12-21T12:07:10.817Z,990.90
2018-12-21T12:08:10.822Z,990.94
2018-12-21T12:09:10.824Z,990.95
2018-12-21T12:10:10.831Z,990.97
2018-12-21T12:11:10.824Z,990.93
2018-12-21T12:12:10.820Z,990.98
2018-12-21T12:13:10.832Z,990.97
2018-12-21T12:14:10.848Z,990.93
2018-12-21T12:15:10.845Z,990.96
2018-12-21T12:16:10.850Z,990.90
2018-12-21T12:17:10.860Z,990.90
2018-12-21T12:18:10.861Z,991.01
2018-12-21T12:19:10.869Z,990.86
2018-12-21T12:20:10.888Z,990.89
2018-12-21T12:21:10.877Z,991.00
2018-12-21T12:22:10.893Z,990.89
2018-12-21T12:23:10.891Z,990.85
2018-12-21T12:24:10.905Z,990.94
2018-12-21T12:25:10.898Z,990.90
2018-12-21T12:26:10.908Z,990.87
2018-12-21T12:27:10.945Z,990.90
2018-12-21T12:28:10.917Z,990.89